Terminal Aerodrome Forecast
Issued by NWS Jackson, MS

Home | Current Version | Previous Version | Text Only | Print | Product List | Glossary On
Versions: 1 2 3 4 5 6 7 8 9 10 11 12 13
000
FTUS44 KMEG 162300
TAFTUP
TAF
KTUP 162339Z 1700/1724 36006KT P6SM SCT050 BKN150
      TEMPO 1708/1712 3SM BR
     FM171300 02005KT P6SM BKN035 BKN150
     FM171700 02005KT P6SM BKN150=

USA.gov is the U.S. government's official web portal to all federal, state and local government web resources and services.